Time;durP1;ratioP1;P1;durP2;ratioP2;P2;SDS_P1;SDS_P2;PMS_P1;PMS_P2;Temp;Humidity;BMP_temperature;BMP_pressure;BME280_temperature;BME280_humidity;BME280_pressure;Samples;Min_cycle;Max_cycle;Signal;HPM_P1;HPM_P2
2020/12/07 00:02:22;;;;;;;10.15;8.73;;;9.30;99.90;;;;;;4931921;29;20207;-31
2020/12/07 00:04:53;;;;;;;14.80;10.00;;;9.20;99.90;;;;;;4932425;29;20201;-30
2020/12/07 00:07:25;;;;;;;15.18;10.80;;;9.00;99.90;;;;;;4932932;29;20658;-31
2020/12/07 00:09:56;;;;;;;12.30;11.10;;;9.10;99.90;;;;;;4941815;29;20214;-31
2020/12/07 00:12:27;;;;;;;13.35;10.27;;;9.20;99.90;;;;;;4946795;28;20759;-31
2020/12/07 00:14:58;;;;;;;13.10;11.20;;;9.20;99.90;;;;;;4937885;28;20222;-31
2020/12/07 00:17:29;;;;;;;13.60;11.18;;;9.00;99.90;;;;;;4931954;29;20222;-31
2020/12/07 00:19:59;;;;;;;13.90;10.95;;;9.00;99.90;;;;;;4932287;29;20191;-31
2020/12/07 00:22:31;;;;;;;14.50;11.18;;;9.20;99.90;;;;;;4937798;29;20221;-31
2020/12/07 00:25:03;;;;;;;12.02;10.60;;;9.30;99.90;;;;;;4936877;28;20646;-32
2020/12/07 00:27:35;;;;;;;10.85;9.20;;;9.30;99.90;;;;;;4929099;29;20301;-31
2020/12/07 00:30:08;;;;;;;11.85;10.63;;;9.20;99.90;;;;;;4934141;29;20194;-31
2020/12/07 00:32:39;;;;;;;9.23;8.32;;;9.10;99.90;;;;;;4929948;29;20642;-30
2020/12/07 00:35:10;;;;;;;14.05;10.38;;;9.10;99.90;;;;;;4932739;28;20225;-32
2020/12/07 00:37:40;;;;;;;12.90;9.95;;;9.10;99.90;;;;;;4932183;29;20249;-31
2020/12/07 00:40:10;;;;;;;14.30;10.38;;;9.00;99.90;;;;;;4938968;29;20277;-31
2020/12/07 00:42:40;;;;;;;12.93;11.63;;;8.90;99.90;;;;;;4932531;29;20619;-31
2020/12/07 00:45:11;;;;;;;13.95;12.65;;;8.90;99.90;;;;;;4931519;29;20503;-31
2020/12/07 00:47:42;;;;;;;16.23;14.02;;;8.90;99.90;;;;;;4931458;29;20701;-31
2020/12/07 00:50:13;;;;;;;15.02;11.57;;;9.00;99.90;;;;;;4932258;29;20673;-31
2020/12/07 00:52:43;;;;;;;15.55;11.07;;;8.90;99.90;;;;;;4931226;29;20266;-31
2020/12/07 00:55:13;;;;;;;10.90;9.90;;;8.80;99.90;;;;;;4931391;29;20652;-31
2020/12/07 00:57:44;;;;;;;17.65;16.05;;;8.80;99.90;;;;;;4932487;29;20234;-31
2020/12/07 01:00:14;;;;;;;19.30;17.35;;;8.80;99.90;;;;;;4931567;29;20190;-31
2020/12/07 01:02:45;;;;;;;16.10;14.50;;;8.70;99.90;;;;;;4931838;29;20199;-31
2020/12/07 01:05:15;;;;;;;18.42;16.30;;;8.60;99.90;;;;;;4931326;29;20226;-31
2020/12/07 01:07:45;;;;;;;18.42;16.63;;;8.70;99.90;;;;;;4932019;29;20233;-31
2020/12/07 01:10:16;;;;;;;20.25;18.15;;;8.80;99.90;;;;;;4944927;29;20210;-31
2020/12/07 01:12:46;;;;;;;116.03;38.58;;;8.80;99.90;;;;;;4929899;29;20891;-30
2020/12/07 01:15:16;;;;;;;19.30;17.27;;;9.00;99.90;;;;;;4930030;29;20230;-31
2020/12/07 01:17:47;;;;;;;16.10;14.35;;;8.90;99.90;;;;;;4931964;29;20206;-31
2020/12/07 01:20:17;;;;;;;18.80;15.27;;;8.70;99.90;;;;;;4931078;29;20261;-31
2020/12/07 01:22:48;;;;;;;20.60;18.20;;;8.70;99.90;;;;;;4931652;29;20265;-31
2020/12/07 01:25:18;;;;;;;20.48;18.38;;;8.60;99.90;;;;;;4931538;29;20755;-31
2020/12/07 01:27:48;;;;;;;26.00;23.30;;;8.70;99.90;;;;;;4931521;29;20198;-31
2020/12/07 01:30:18;;;;;;;18.77;16.75;;;8.70;99.90;;;;;;4931648;29;20210;-30
2020/12/07 01:32:49;;;;;;;23.17;20.67;;;8.60;99.90;;;;;;4931480;29;20277;-30
2020/12/07 01:35:20;;;;;;;21.67;19.05;;;8.50;99.90;;;;;;4931802;29;20218;-30
2020/12/07 01:37:50;;;;;;;25.02;22.50;;;8.50;99.90;;;;;;4929615;29;20198;-30
2020/12/07 01:40:20;;;;;;;19.58;16.52;;;8.40;99.90;;;;;;4931506;29;20202;-31
2020/12/07 01:42:50;;;;;;;18.77;16.70;;;8.40;99.90;;;;;;4931532;29;20218;-31
2020/12/07 01:45:20;;;;;;;15.13;13.63;;;8.50;99.90;;;;;;4930892;29;20218;-31
2020/12/07 01:47:52;;;;;;;19.17;17.17;;;8.40;99.90;;;;;;4931141;29;20275;-31
2020/12/07 01:50:22;;;;;;;17.50;15.70;;;8.30;99.90;;;;;;4931486;29;20216;-30
2020/12/07 01:52:53;;;;;;;13.93;12.52;;;8.30;99.90;;;;;;4931681;29;20261;-31
2020/12/07 01:55:23;;;;;;;16.17;12.90;;;8.20;99.90;;;;;;4931149;29;20665;-30
2020/12/07 01:57:53;;;;;;;15.57;13.25;;;8.10;99.90;;;;;;4934026;29;20194;-31
2020/12/07 02:00:24;;;;;;;16.63;13.27;;;8.10;99.90;;;;;;4934851;29;20662;-31
2020/12/07 02:02:56;;;;;;;16.90;15.10;;;8.00;99.90;;;;;;4936823;29;20268;-31
2020/12/07 02:05:27;;;;;;;16.85;15.10;;;8.00;99.90;;;;;;4951141;28;20224;-31
2020/12/07 02:08:14;;;;;;;19.15;14.95;;;7.80;99.90;;;;;;4944863;28;20202;-31
2020/12/07 02:10:45;;;;;;;15.50;13.90;;;7.60;99.90;;;;;;4920002;29;20195;-31
2020/12/07 02:13:16;;;;;;;18.80;14.38;;;7.50;99.90;;;;;;4934020;29;20253;-31
2020/12/07 02:15:46;;;;;;;15.30;13.75;;;7.30;99.90;;;;;;4926268;29;20571;-31
2020/12/07 02:18:17;;;;;;;18.15;16.35;;;7.20;99.90;;;;;;4933517;29;20316;-31
2020/12/07 02:20:50;;;;;;;21.02;16.77;;;7.20;99.90;;;;;;4931902;29;20194;-31
2020/12/07 02:23:20;;;;;;;16.52;13.90;;;7.10;99.90;;;;;;4933226;29;20273;-31
2020/12/07 02:25:50;;;;;;;18.40;15.98;;;7.00;99.90;;;;;;4932211;29;20202;-31
2020/12/07 02:28:20;;;;;;;16.15;14.43;;;7.00;99.90;;;;;;4942187;29;20194;-31
2020/12/07 02:30:50;;;;;;;16.63;14.45;;;6.80;99.90;;;;;;4933701;29;20212;-31
2020/12/07 02:33:20;;;;;;;18.10;15.90;;;6.70;99.90;;;;;;4943375;29;20205;-32
2020/12/07 02:35:52;;;;;;;16.75;14.93;;;6.70;99.90;;;;;;4935988;28;20210;-32
2020/12/07 02:38:22;;;;;;;18.48;16.25;;;6.60;99.90;;;;;;4934441;29;20289;-32
2020/12/07 02:40:52;;;;;;;17.80;13.60;;;6.50;99.90;;;;;;4933987;29;20202;-32
2020/12/07 02:43:22;;;;;;;16.20;14.60;;;6.40;99.90;;;;;;4934142;29;20230;-32
2020/12/07 02:45:52;;;;;;;15.85;14.25;;;6.30;99.90;;;;;;4933563;29;20662;-31
2020/12/07 02:48:22;;;;;;;18.20;15.52;;;6.20;99.90;;;;;;4934299;29;20229;-32
2020/12/07 02:50:54;;;;;;;17.48;15.30;;;6.20;99.90;;;;;;4934016;29;20194;-31
2020/12/07 02:53:24;;;;;;;23.55;17.90;;;6.10;99.90;;;;;;4934320;29;20190;-31
2020/12/07 02:55:54;;;;;;;479.38;95.07;;;6.10;99.90;;;;;;4933255;29;20277;-31
2020/12/07 02:58:24;;;;;;;23.00;20.33;;;6.40;99.90;;;;;;4918200;29;20276;-31
2020/12/07 03:00:54;;;;;;;263.42;58.88;;;6.60;99.90;;;;;;4932253;29;20202;-31
2020/12/07 03:03:24;;;;;;;21.90;17.95;;;6.70;99.90;;;;;;4933863;29;20203;-31
2020/12/07 03:05:56;;;;;;;25.50;22.55;;;6.60;99.90;;;;;;4933023;29;20307;-31
2020/12/07 03:08:26;;;;;;;28.85;24.05;;;6.70;99.90;;;;;;4929383;29;20198;-31
2020/12/07 03:10:56;;;;;;;33.15;24.73;;;6.70;99.90;;;;;;4932972;29;20210;-31
2020/12/07 03:13:26;;;;;;;34.90;26.65;;;6.70;99.90;;;;;;4933766;29;20245;-31
2020/12/07 03:15:57;;;;;;;30.95;25.95;;;6.80;99.90;;;;;;4932883;29;20978;-31
2020/12/07 03:18:27;;;;;;;35.35;28.27;;;6.90;99.90;;;;;;4932543;29;20202;-31
2020/12/07 03:20:59;;;;;;;37.90;29.55;;;6.80;99.90;;;;;;4924008;29;20246;-31
2020/12/07 03:23:29;;;;;;;38.38;28.75;;;6.80;99.90;;;;;;4924945;29;20194;-31
2020/12/07 03:26:00;;;;;;;26.77;20.38;;;6.90;99.90;;;;;;4929819;29;20607;-31
2020/12/07 03:28:30;;;;;;;18.80;14.95;;;6.90;99.90;;;;;;4932776;29;20289;-31
2020/12/07 03:31:01;;;;;;;15.38;13.75;;;6.90;99.90;;;;;;4932453;29;20249;-31
2020/12/07 03:33:31;;;;;;;17.20;14.55;;;6.80;99.90;;;;;;4932861;29;20228;-31
2020/12/07 03:36:02;;;;;;;21.00;16.55;;;6.80;99.90;;;;;;4917442;29;20582;-31
2020/12/07 03:38:32;;;;;;;18.00;16.08;;;6.70;99.90;;;;;;4932664;29;20698;-33
2020/12/07 03:41:02;;;;;;;18.23;14.43;;;6.60;99.90;;;;;;4933186;29;20607;-32
2020/12/07 03:43:35;;;;;;;22.40;16.05;;;6.50;99.90;;;;;;4932312;29;20233;-32
2020/12/07 03:46:05;;;;;;;35.70;19.25;;;6.50;99.90;;;;;;4932270;29;20193;-31
2020/12/07 03:48:37;;;;;;;17.90;14.68;;;6.50;99.90;;;;;;4932015;29;20240;-32
2020/12/07 03:51:09;;;;;;;15.18;12.75;;;6.50;99.90;;;;;;4921088;29;20224;-31
2020/12/07 03:53:40;;;;;;;17.88;14.60;;;6.50;99.90;;;;;;4947447;28;20558;-31
2020/12/07 03:56:11;;;;;;;16.80;13.45;;;6.50;99.90;;;;;;4946096;28;20194;-31
2020/12/07 03:58:41;;;;;;;16.85;14.80;;;6.50;99.90;;;;;;4932432;29;20690;-31
2020/12/07 04:01:11;;;;;;;16.35;12.77;;;6.50;99.90;;;;;;4932236;29;20214;-31
2020/12/07 04:03:44;;;;;;;14.85;13.35;;;6.50;99.90;;;;;;4931985;29;20221;-31
2020/12/07 04:06:19;;;;;;;16.73;13.40;;;6.50;99.90;;;;;;4932292;29;20285;-31
2020/12/07 04:08:49;;;;;;;17.00;14.38;;;6.40;99.90;;;;;;4932413;29;20197;-31
2020/12/07 04:11:19;;;;;;;19.58;15.43;;;6.50;99.90;;;;;;4931465;29;20202;-31
2020/12/07 04:13:49;;;;;;;19.50;14.65;;;6.40;99.90;;;;;;4926113;29;20191;-31
2020/12/07 04:16:19;;;;;;;22.13;14.65;;;6.50;99.90;;;;;;4932955;29;20291;-31
2020/12/07 04:18:50;;;;;;;13.30;11.82;;;6.50;99.90;;;;;;4930749;29;20265;-31
2020/12/07 04:21:21;;;;;;;15.52;13.32;;;6.50;99.90;;;;;;4931555;29;20217;-31
2020/12/07 04:23:51;;;;;;;17.50;14.82;;;6.50;99.90;;;;;;4932144;29;20213;-31
2020/12/07 04:26:21;;;;;;;16.85;13.00;;;6.40;99.90;;;;;;4932876;29;20686;-31
2020/12/07 04:28:51;;;;;;;14.43;12.00;;;6.30;99.90;;;;;;4932848;29;20406;-30
2020/12/07 04:31:22;;;;;;;16.30;13.07;;;6.40;99.90;;;;;;4932579;29;20266;-31
2020/12/07 04:33:52;;;;;;;17.85;13.02;;;6.30;99.90;;;;;;4932042;29;20218;-32
2020/12/07 04:36:23;;;;;;;16.77;13.80;;;6.20;99.90;;;;;;4932941;29;20249;-31
2020/12/07 04:38:53;;;;;;;15.98;13.20;;;6.20;99.90;;;;;;4931914;29;20249;-31
2020/12/07 04:41:23;;;;;;;13.82;12.38;;;6.10;99.90;;;;;;4933134;29;20694;-31
2020/12/07 04:43:54;;;;;;;17.48;13.38;;;6.10;99.90;;;;;;4932945;29;20258;-32
2020/12/07 04:46:25;;;;;;;17.83;14.30;;;6.10;99.90;;;;;;4929589;29;20198;-31
2020/12/07 04:48:59;;;;;;;16.20;14.00;;;6.10;99.90;;;;;;4931752;29;20238;-31
2020/12/07 04:51:31;;;;;;;14.68;12.82;;;5.90;99.90;;;;;;4927896;29;20206;-31
2020/12/07 04:54:02;;;;;;;14.20;12.35;;;5.90;99.90;;;;;;4925310;29;20717;-31
2020/12/07 04:56:34;;;;;;;14.48;12.23;;;5.80;99.90;;;;;;4929418;29;20205;-31
2020/12/07 04:59:04;;;;;;;13.55;11.38;;;5.80;99.90;;;;;;4927070;29;20198;-31
2020/12/07 05:01:34;;;;;;;14.18;12.70;;;5.80;99.90;;;;;;4927643;29;20209;-31
2020/12/07 05:04:05;;;;;;;13.82;11.50;;;5.80;99.90;;;;;;4930063;29;20272;-30
2020/12/07 05:06:36;;;;;;;14.40;11.50;;;5.80;99.90;;;;;;4931890;29;20553;-31
2020/12/07 05:09:06;;;;;;;13.75;12.35;;;5.80;99.90;;;;;;4932105;29;20242;-30
2020/12/07 05:11:36;;;;;;;15.85;12.27;;;5.80;99.90;;;;;;4920491;29;20202;-31
2020/12/07 05:14:10;;;;;;;16.25;12.95;;;5.80;99.90;;;;;;4931281;29;20261;-30
2020/12/07 05:16:41;;;;;;;15.32;13.80;;;5.80;99.90;;;;;;4925696;29;20209;-31
2020/12/07 05:19:11;;;;;;;16.38;14.77;;;5.70;99.90;;;;;;4928222;29;20258;-31
2020/12/07 05:21:42;;;;;;;18.75;16.08;;;5.60;99.90;;;;;;4929291;29;20202;-31
2020/12/07 05:24:13;;;;;;;16.45;13.95;;;5.70;99.90;;;;;;4928791;29;20202;-31
2020/12/07 05:26:44;;;;;;;17.67;14.45;;;5.70;99.90;;;;;;4926557;29;20660;-31
2020/12/07 05:29:31;;;;;;;14.48;13.00;;;5.70;99.90;;;;;;4929057;29;20338;-31
2020/12/07 05:32:01;;;;;;;16.33;14.30;;;5.60;99.90;;;;;;4931253;29;20367;-31
2020/12/07 05:34:31;;;;;;;19.10;16.30;;;5.50;99.90;;;;;;4935738;29;20679;-31
2020/12/07 05:37:03;;;;;;;18.67;16.33;;;5.40;99.90;;;;;;4935889;29;20612;-31
2020/12/07 05:39:35;;;;;;;16.30;12.55;;;5.40;99.90;;;;;;4932367;29;20190;-31
2020/12/07 05:42:06;;;;;;;22.48;18.05;;;5.40;99.90;;;;;;4935342;29;20752;-31
2020/12/07 05:44:38;;;;;;;18.30;16.42;;;5.50;99.90;;;;;;4934973;29;20202;-31
2020/12/07 05:47:09;;;;;;;17.20;14.77;;;5.50;99.90;;;;;;4935152;29;20709;-30
2020/12/07 05:49:41;;;;;;;16.38;14.15;;;5.40;99.90;;;;;;4934569;29;20321;-30
2020/12/07 05:52:14;;;;;;;17.77;15.02;;;5.40;99.90;;;;;;4935301;29;20198;-30
2020/12/07 05:54:45;;;;;;;17.30;14.60;;;5.40;99.90;;;;;;4933975;29;20218;-30
2020/12/07 05:57:22;;;;;;;13.35;11.48;;;5.40;99.90;;;;;;4931138;29;20198;-31
2020/12/07 05:59:57;;;;;;;13.13;11.68;;;5.30;99.90;;;;;;4928569;29;20696;-31
2020/12/07 06:02:28;;;;;;;13.77;11.93;;;5.40;99.90;;;;;;4929451;29;20281;-30
2020/12/07 06:05:02;;;;;;;13.07;11.68;;;5.50;99.90;;;;;;4932756;29;20223;-30
2020/12/07 06:07:37;;;;;;;13.93;11.43;;;5.50;99.90;;;;;;4932383;29;20212;-32
2020/12/07 06:10:07;;;;;;;15.90;12.10;;;5.50;99.90;;;;;;4934341;29;20193;-30
2020/12/07 06:12:43;;;;;;;15.75;13.45;;;5.50;99.90;;;;;;4934458;29;20202;-31
2020/12/07 06:15:13;;;;;;;18.70;13.50;;;5.40;99.90;;;;;;4921869;29;20222;-31
2020/12/07 06:17:52;;;;;;;18.27;14.15;;;5.40;99.90;;;;;;4932304;29;20198;-31
2020/12/07 06:20:33;;;;;;;17.27;14.32;;;5.50;99.90;;;;;;4934885;29;20280;-31
2020/12/07 06:23:05;;;;;;;16.48;13.55;;;5.40;99.90;;;;;;4934659;29;20196;-31
2020/12/07 06:25:35;;;;;;;15.45;13.55;;;5.40;99.90;;;;;;4934505;29;20201;-31
2020/12/07 06:28:10;;;;;;;17.48;14.38;;;5.40;99.90;;;;;;4934289;29;20190;-30
2020/12/07 06:30:40;;;;;;;14.13;12.52;;;5.30;99.90;;;;;;4924069;29;20667;-31
2020/12/07 06:33:11;;;;;;;15.10;13.50;;;5.20;99.90;;;;;;4934652;29;20202;-31
2020/12/07 06:35:45;;;;;;;16.05;14.35;;;5.20;99.90;;;;;;4934441;29;20249;-31
2020/12/07 06:38:17;;;;;;;16.40;13.27;;;5.20;99.90;;;;;;4934584;29;20193;-31
2020/12/07 06:40:54;;;;;;;16.85;14.52;;;5.10;99.90;;;;;;4933855;29;20764;-31
2020/12/07 06:43:28;;;;;;;16.73;14.70;;;5.20;99.90;;;;;;4933670;29;20277;-31
2020/12/07 06:45:59;;;;;;;18.67;13.48;;;5.10;99.90;;;;;;4933990;29;20194;-31
2020/12/07 06:48:36;;;;;;;16.67;14.38;;;5.10;99.90;;;;;;4933260;29;20232;-31
2020/12/07 06:51:06;;;;;;;16.23;13.60;;;5.00;99.90;;;;;;4922851;29;20630;-31
2020/12/07 06:53:46;;;;;;;13.82;12.35;;;5.10;99.90;;;;;;4934504;29;20204;-32
2020/12/07 06:56:17;;;;;;;15.13;12.10;;;5.10;99.90;;;;;;4933307;29;20213;-31
2020/12/07 06:58:48;;;;;;;16.88;12.35;;;5.00;99.90;;;;;;4934591;29;20300;-31
2020/12/07 07:01:18;;;;;;;14.65;11.70;;;5.00;99.90;;;;;;4934228;29;20257;-32
2020/12/07 07:03:50;;;;;;;15.80;12.25;;;5.00;99.90;;;;;;4934016;29;20514;-31
2020/12/07 07:06:21;;;;;;;11.40;10.20;;;5.00;99.90;;;;;;4933656;29;20201;-31
2020/12/07 07:08:53;;;;;;;13.48;10.40;;;5.00;99.90;;;;;;4934099;29;20201;-31
2020/12/07 07:11:24;;;;;;;12.30;10.98;;;4.90;99.90;;;;;;4933670;29;20282;-31
2020/12/07 07:13:54;;;;;;;12.95;11.02;;;4.80;99.90;;;;;;4934336;29;20213;-31
2020/12/07 07:16:24;;;;;;;13.40;10.68;;;4.80;99.90;;;;;;4933517;29;20700;-31
2020/12/07 07:18:55;;;;;;;13.75;11.50;;;4.80;99.90;;;;;;4933847;29;20198;-31
2020/12/07 07:21:25;;;;;;;13.55;10.50;;;4.70;99.90;;;;;;4934130;29;20223;-31
2020/12/07 07:23:56;;;;;;;12.48;11.18;;;4.70;99.90;;;;;;4933704;29;20682;-31
2020/12/07 07:26:45;;;;;;;12.30;10.20;;;4.60;99.90;;;;;;4933641;29;20195;-31
2020/12/07 07:29:15;;;;;;;12.23;10.45;;;4.60;99.90;;;;;;4933023;29;20242;-31
2020/12/07 07:31:46;;;;;;;12.25;10.95;;;4.60;99.90;;;;;;4926342;29;20687;-31
2020/12/07 07:34:16;;;;;;;13.40;11.02;;;4.60;99.90;;;;;;4932808;29;20254;-31
2020/12/07 07:36:46;;;;;;;12.75;9.85;;;4.60;99.90;;;;;;4933016;29;20229;-31
2020/12/07 07:39:19;;;;;;;10.50;9.15;;;4.60;99.90;;;;;;4933060;29;20198;-31
2020/12/07 07:41:49;;;;;;;12.15;9.15;;;4.60;99.90;;;;;;4933112;29;20321;-31
2020/12/07 07:44:19;;;;;;;10.82;8.20;;;4.70;99.90;;;;;;4917484;29;20283;-38
2020/12/07 07:46:49;;;;;;;11.85;8.80;;;4.70;99.90;;;;;;4933373;29;20257;-32
2020/12/07 07:49:30;;;;;;;10.43;9.07;;;4.70;99.90;;;;;;4932706;29;20296;-31
2020/12/07 08:15:29;;;;;;;10.00;7.63;;;4.60;99.90;;;;;;4930727;29;20244;-31
2020/12/07 08:18:00;;;;;;;8.02;7.22;;;4.60;99.90;;;;;;4930111;29;20272;-31
2020/12/07 08:20:32;;;;;;;10.00;7.20;;;4.60;99.90;;;;;;4932577;29;20194;-31
2020/12/07 08:23:04;;;;;;;9.25;7.30;;;4.70;99.90;;;;;;4932606;29;20659;-32
2020/12/07 08:25:50;;;;;;;7.75;6.90;;;4.70;99.90;;;;;;4932277;29;20249;-31
2020/12/07 08:28:27;;;;;;;8.48;7.40;;;4.60;99.90;;;;;;4932647;29;20265;-31
2020/12/07 08:31:08;;;;;;;9.15;7.90;;;4.60;99.90;;;;;;4932359;29;20255;-31
2020/12/07 08:33:40;;;;;;;9.27;7.50;;;4.70;99.90;;;;;;4931970;29;20256;-31
2020/12/07 08:36:11;;;;;;;11.82;7.80;;;4.70;99.90;;;;;;4931813;29;20356;-31
2020/12/07 08:38:42;;;;;;;9.38;7.68;;;4.70;99.90;;;;;;4932045;29;20198;-31
2020/12/07 08:41:14;;;;;;;10.05;7.50;;;4.80;99.90;;;;;;4932230;29;20627;-31
2020/12/07 08:43:47;;;;;;;8.35;7.38;;;4.80;99.90;;;;;;4932434;29;20576;-32
2020/12/07 08:46:19;;;;;;;7.70;6.75;;;4.90;99.90;;;;;;4932376;29;20764;-31
2020/12/07 08:48:49;;;;;;;9.77;7.32;;;5.00;99.90;;;;;;4931685;29;20304;-31
2020/12/07 08:51:22;;;;;;;9.05;6.38;;;5.00;99.90;;;;;;4932559;29;20198;-31
2020/12/07 08:53:52;;;;;;;10.80;6.60;;;5.00;99.90;;;;;;4931807;29;20210;-31
2020/12/07 08:56:22;;;;;;;6.78;6.07;;;4.90;99.90;;;;;;4932300;29;20285;-31
2020/12/07 08:58:54;;;;;;;7.15;6.35;;;5.00;99.90;;;;;;4932184;29;20222;-31
2020/12/07 09:01:24;;;;;;;8.90;6.40;;;5.10;99.90;;;;;;4931920;29;20245;-31
2020/12/07 09:03:55;;;;;;;4.75;4.35;;;5.20;99.90;;;;;;4932068;29;20194;-31
2020/12/07 09:06:25;;;;;;;7.32;4.75;;;5.30;99.90;;;;;;4933154;29;20253;-30
2020/12/07 09:08:55;;;;;;;6.72;5.50;;;5.50;99.90;;;;;;4935912;29;20284;-30
2020/12/07 09:11:25;;;;;;;7.03;5.82;;;5.50;99.90;;;;;;4935918;29;20224;-31
2020/12/07 09:13:57;;;;;;;5.95;5.22;;;5.60;99.90;;;;;;4936183;29;20630;-31
2020/12/07 09:16:27;;;;;;;4.70;4.28;;;5.60;99.90;;;;;;4936300;29;20218;-31
2020/12/07 09:18:58;;;;;;;5.30;4.80;;;5.60;99.90;;;;;;4935184;29;20214;-31
2020/12/07 09:21:28;;;;;;;5.47;5.00;;;5.60;99.90;;;;;;4935433;29;20322;-30
2020/12/07 09:23:58;;;;;;;6.45;5.75;;;5.60;99.90;;;;;;4934013;29;20213;-30
2020/12/07 09:26:28;;;;;;;5.22;4.80;;;5.70;99.90;;;;;;4935721;29;20272;-30
2020/12/07 09:29:00;;;;;;;5.63;4.15;;;5.60;99.90;;;;;;4935493;29;20221;-31
2020/12/07 09:31:30;;;;;;;5.40;4.50;;;5.60;99.90;;;;;;4935185;29;20262;-31
2020/12/07 09:34:00;;;;;;;6.35;4.88;;;5.40;99.90;;;;;;4935396;29;20285;-31
2020/12/07 09:36:30;;;;;;;6.07;4.95;;;5.30;99.90;;;;;;4935063;29;20233;-31
2020/12/07 09:39:00;;;;;;;5.68;5.15;;;5.20;99.90;;;;;;4935230;29;20206;-31
2020/12/07 09:41:31;;;;;;;4.88;4.38;;;5.10;99.90;;;;;;4935375;29;20205;-30
2020/12/07 09:44:02;;;;;;;5.43;4.40;;;5.10;99.90;;;;;;4934860;29;20269;-30
2020/12/07 09:46:32;;;;;;;4.95;4.45;;;5.00;99.90;;;;;;4935333;29;20599;-29
2020/12/07 09:49:02;;;;;;;5.63;5.13;;;5.00;99.90;;;;;;4934601;29;20248;-29
2020/12/07 09:51:32;;;;;;;5.85;4.45;;;4.90;99.90;;;;;;4920122;29;20187;-30
2020/12/07 09:54:03;;;;;;;4.93;4.43;;;4.80;99.90;;;;;;4934471;29;20202;-30
2020/12/07 09:56:33;;;;;;;5.55;4.95;;;4.70;99.90;;;;;;4935927;29;20284;-30
2020/12/07 09:59:04;;;;;;;6.13;4.80;;;4.60;99.90;;;;;;4934897;29;20205;-29
2020/12/07 10:01:34;;;;;;;4.43;4.03;;;4.70;99.90;;;;;;4934906;29;20194;-29
2020/12/07 10:04:04;;;;;;;5.90;4.70;;;4.60;99.90;;;;;;4934683;29;20257;-29
2020/12/07 10:06:34;;;;;;;5.07;4.57;;;4.60;99.90;;;;;;4935193;29;20202;-29
2020/12/07 10:09:06;;;;;;;5.40;4.63;;;4.50;99.90;;;;;;4934739;29;20281;-30
2020/12/07 10:11:36;;;;;;;5.22;4.45;;;4.40;99.90;;;;;;4935225;29;20257;-30
2020/12/07 10:14:07;;;;;;;8.90;5.05;;;4.40;99.90;;;;;;4934938;29;20230;-29
2020/12/07 10:16:37;;;;;;;5.55;4.63;;;4.40;99.90;;;;;;4934937;29;20289;-29
2020/12/07 10:19:07;;;;;;;6.00;5.30;;;4.40;99.90;;;;;;4933523;29;20198;-29
2020/12/07 10:21:38;;;;;;;6.60;5.47;;;4.30;99.90;;;;;;4935027;29;20614;-30
2020/12/07 10:24:08;;;;;;;4.85;4.28;;;4.30;99.90;;;;;;4934550;29;20202;-29
2020/12/07 10:26:38;;;;;;;6.40;5.80;;;4.30;99.90;;;;;;4934328;29;20578;-30
2020/12/07 10:29:09;;;;;;;5.40;4.90;;;4.30;99.90;;;;;;4934496;29;20273;-30
2020/12/07 10:31:45;;;;;;;6.50;5.45;;;4.20;99.90;;;;;;4934632;29;20189;-30
2020/12/07 10:34:16;;;;;;;7.45;5.30;;;4.30;99.90;;;;;;4934185;29;20263;-30
2020/12/07 10:36:47;;;;;;;4.80;4.30;;;4.30;99.90;;;;;;4934543;29;20283;-29
2020/12/07 10:39:17;;;;;;;7.68;5.40;;;4.40;99.90;;;;;;4934209;29;20205;-29
2020/12/07 10:41:47;;;;;;;6.28;5.63;;;4.50;99.90;;;;;;4934284;29;20227;-30
2020/12/07 10:44:18;;;;;;;5.68;5.03;;;4.70;99.90;;;;;;4933954;29;20348;-30
2020/12/07 10:46:51;;;;;;;5.75;4.90;;;4.80;99.90;;;;;;4934383;29;20202;-30
2020/12/07 10:49:21;;;;;;;5.32;4.82;;;4.90;99.90;;;;;;4933248;29;20376;-30
2020/12/07 10:51:51;;;;;;;5.53;5.03;;;4.80;99.90;;;;;;4934445;29;20201;-30
2020/12/07 10:54:21;;;;;;;5.78;4.70;;;5.00;99.90;;;;;;4934244;29;20524;-30
2020/12/07 10:56:52;;;;;;;4.80;4.40;;;4.90;99.90;;;;;;4923108;29;20313;-30
2020/12/07 10:59:23;;;;;;;5.25;4.75;;;4.80;99.90;;;;;;4933864;29;20563;-30
2020/12/07 11:01:55;;;;;;;4.90;4.28;;;5.00;99.90;;;;;;4933960;29;20245;-30
2020/12/07 11:04:26;;;;;;;5.65;4.10;;;5.00;99.90;;;;;;4921938;29;20197;-30
2020/12/07 11:06:58;;;;;;;4.97;4.30;;;5.00;99.90;;;;;;4933746;29;20220;-29
2020/12/07 11:09:28;;;;;;;5.07;4.47;;;5.10;99.90;;;;;;4933565;29;20305;-30
2020/12/07 11:12:00;;;;;;;4.53;3.85;;;5.00;99.90;;;;;;4933736;29;20210;-29
2020/12/07 11:14:32;;;;;;;4.75;4.20;;;5.10;99.90;;;;;;4933428;29;20209;-29
2020/12/07 11:17:02;;;;;;;4.50;4.10;;;5.10;99.90;;;;;;4933865;29;20218;-29
2020/12/07 11:19:32;;;;;;;4.50;4.10;;;5.20;99.90;;;;;;4933293;29;20213;-29
2020/12/07 11:22:02;;;;;;;5.15;3.80;;;5.30;99.90;;;;;;4934103;29;20293;-30
2020/12/07 11:24:32;;;;;;;4.32;3.03;;;5.40;99.90;;;;;;4933243;29;20205;-30
2020/12/07 11:27:07;;;;;;;4.07;3.63;;;5.50;99.90;;;;;;4933776;29;20197;-30
2020/12/07 11:29:39;;;;;;;3.30;3.00;;;5.70;99.90;;;;;;4932925;29;20194;-30
2020/12/07 11:32:09;;;;;;;3.40;3.13;;;5.80;99.90;;;;;;4931514;29;20496;-30
2020/12/07 11:34:39;;;;;;;3.10;2.90;;;5.90;99.90;;;;;;4933403;29;20261;-30
2020/12/07 11:37:10;;;;;;;3.25;2.95;;;6.00;99.90;;;;;;4933066;29;20214;-30
2020/12/07 11:39:47;;;;;;;3.35;2.95;;;6.10;99.90;;;;;;4932803;29;20248;-30
2020/12/07 11:42:24;;;;;;;3.33;3.10;;;6.20;99.90;;;;;;4933685;29;20217;-30
2020/12/07 11:44:56;;;;;;;3.50;3.20;;;6.20;99.90;;;;;;4932961;29;20618;-30
2020/12/07 11:47:26;;;;;;;3.35;2.75;;;6.30;99.90;;;;;;4932663;29;20338;-30
2020/12/07 11:49:58;;;;;;;4.35;3.10;;;6.30;99.90;;;;;;4933091;29;20233;-30
2020/12/07 11:52:28;;;;;;;4.25;3.25;;;6.40;99.90;;;;;;4933887;29;20195;-31
2020/12/07 11:54:58;;;;;;;3.53;3.22;;;6.40;99.90;;;;;;4929113;29;20284;-30
2020/12/07 11:57:28;;;;;;;3.88;3.35;;;6.40;99.90;;;;;;4932022;29;20749;-30
2020/12/07 11:59:59;;;;;;;3.45;3.10;;;6.50;99.90;;;;;;4932921;29;20638;-30
2020/12/07 12:02:29;;;;;;;3.53;3.22;;;6.50;99.90;;;;;;4932919;29;20190;-30
2020/12/07 12:04:59;;;;;;;2.92;2.67;;;6.40;99.90;;;;;;4932659;29;20198;-30
2020/12/07 12:07:30;;;;;;;3.58;3.28;;;6.40;99.90;;;;;;4925353;29;20213;-30
2020/12/07 12:10:00;;;;;;;3.15;2.83;;;6.20;99.90;;;;;;4932361;29;20270;-30
2020/12/07 12:12:30;;;;;;;3.55;3.25;;;6.20;99.90;;;;;;4932704;29;20717;-30
2020/12/07 12:15:01;;;;;;;4.50;3.45;;;6.20;99.90;;;;;;4932863;29;20202;-30
2020/12/07 12:17:31;;;;;;;3.03;2.80;;;6.20;99.90;;;;;;4917753;29;20284;-30
2020/12/07 12:20:01;;;;;;;3.35;3.05;;;6.20;99.90;;;;;;4932795;29;20252;-30
2020/12/07 12:22:32;;;;;;;4.45;3.78;;;6.30;99.90;;;;;;4932792;29;20577;-30
2020/12/07 12:25:02;;;;;;;3.95;3.65;;;6.30;99.90;;;;;;4931780;29;20202;-30
2020/12/07 12:27:32;;;;;;;4.60;3.75;;;6.40;99.90;;;;;;4932000;29;20237;-30
2020/12/07 12:30:03;;;;;;;3.90;3.50;;;6.40;99.90;;;;;;4931897;29;20201;-30
2020/12/07 12:32:33;;;;;;;4.13;3.47;;;6.30;99.90;;;;;;4931985;29;20217;-30
2020/12/07 12:35:04;;;;;;;3.78;3.40;;;6.30;99.90;;;;;;4931969;29;20193;-30
2020/12/07 12:37:34;;;;;;;3.95;3.58;;;6.40;99.90;;;;;;4932749;29;20217;-30
2020/12/07 12:40:04;;;;;;;4.38;3.85;;;6.50;99.90;;;;;;4932001;29;20205;-30
2020/12/07 12:42:34;;;;;;;5.85;5.10;;;6.30;99.90;;;;;;4932199;29;20226;-30
2020/12/07 12:45:06;;;;;;;6.90;6.30;;;6.10;99.90;;;;;;4932332;29;20194;-30
2020/12/07 12:47:36;;;;;;;6.60;5.93;;;6.00;99.90;;;;;;4924289;29;20206;-30
2020/12/07 12:50:06;;;;;;;5.72;5.18;;;6.00;99.90;;;;;;4932610;29;20269;-30
2020/12/07 12:52:38;;;;;;;6.85;6.25;;;5.90;99.90;;;;;;4932631;29;20336;-30
2020/12/07 12:55:08;;;;;;;12.10;8.13;;;6.00;99.90;;;;;;4931956;29;20261;-30
2020/12/07 12:57:38;;;;;;;7.13;6.45;;;6.00;99.90;;;;;;4932231;29;20272;-30
2020/12/07 13:00:09;;;;;;;8.38;6.90;;;5.90;99.90;;;;;;4932119;29;20230;-30
2020/12/07 13:02:40;;;;;;;8.30;7.40;;;5.80;99.90;;;;;;4932276;29;20257;-31
2020/12/07 13:05:10;;;;;;;10.55;9.40;;;5.80;99.90;;;;;;4932572;29;20300;-30
2020/12/07 13:07:40;;;;;;;8.43;7.57;;;5.80;99.90;;;;;;4931687;29;20224;-30
2020/12/07 13:10:10;;;;;;;9.60;8.60;;;5.80;99.90;;;;;;4931950;29;20198;-31
2020/12/07 13:12:41;;;;;;;10.27;8.82;;;5.80;99.90;;;;;;4932260;29;20250;-30
2020/12/07 13:15:13;;;;;;;8.80;7.85;;;5.80;99.90;;;;;;4931664;29;20198;-30
2020/12/07 13:17:48;;;;;;;9.38;8.48;;;5.90;99.90;;;;;;4916956;29;20221;-31
2020/12/07 13:20:26;;;;;;;5.72;5.22;;;5.90;99.90;;;;;;4932107;29;20550;-30
2020/12/07 13:23:04;;;;;;;5.00;4.53;;;5.90;99.90;;;;;;4932020;29;20594;-30
2020/12/07 13:25:44;;;;;;;3.60;3.35;;;6.00;99.90;;;;;;4922663;29;20209;-30
2020/12/07 13:28:15;;;;;;;3.85;3.55;;;6.20;99.90;;;;;;4925175;29;20198;-30
2020/12/07 13:30:46;;;;;;;3.30;3.00;;;6.30;99.90;;;;;;4931776;29;20194;-31